createdAt,value
2023-02-03T00:00:06.644Z,102054.88
2023-02-03T00:02:33.206Z,102051.59
2023-02-03T00:04:59.675Z,102057.72
2023-02-03T00:07:26.160Z,102071.34
2023-02-03T00:09:52.811Z,102058.78
2023-02-03T00:12:19.352Z,102048.44
2023-02-03T00:14:45.817Z,102042.97
2023-02-03T00:17:12.336Z,102049.22
2023-02-03T00:19:38.809Z,102050.22
2023-02-03T00:22:05.321Z,102053.00
2023-02-03T00:24:31.829Z,102035.25
2023-02-03T00:26:58.324Z,102031.03
2023-02-03T00:29:26.093Z,102036.75
2023-02-03T00:31:54.101Z,102036.59
2023-02-03T00:34:20.871Z,102032.75
2023-02-03T00:36:48.351Z,102037.84
2023-02-03T00:39:15.831Z,102031.31
2023-02-03T00:41:42.506Z,102040.59
2023-02-03T00:44:09.011Z,102041.22
2023-02-03T00:46:38.172Z,102045.69
2023-02-03T00:49:04.994Z,102051.19
2023-02-03T00:51:32.358Z,102048.19
2023-02-03T00:53:58.868Z,102058.22
2023-02-03T00:56:25.391Z,102058.59
2023-02-03T00:58:51.901Z,102073.66
2023-02-03T01:01:18.440Z,102073.06
2023-02-03T01:03:45.003Z,102078.75
2023-02-03T01:06:15.733Z,102082.22
2023-02-03T01:08:42.633Z,102086.22
2023-02-03T01:11:11.095Z,102109.63
2023-02-03T01:13:37.859Z,102113.63
2023-02-03T01:16:07.767Z,102106.09
2023-02-03T01:18:34.401Z,102104.97
2023-02-03T01:21:09.327Z,102095.94
2023-02-03T01:23:36.555Z,102095.31
2023-02-03T01:26:05.822Z,102090.59
2023-02-03T01:28:32.768Z,102099.50
2023-02-03T01:31:11.425Z,102091.56
2023-02-03T01:33:40.864Z,102099.97
2023-02-03T01:36:10.645Z,102102.63
2023-02-03T01:38:38.187Z,102103.69
2023-02-03T01:41:07.592Z,102088.91
2023-02-03T01:43:41.560Z,102083.28
2023-02-03T01:46:35.383Z,102080.25
2023-02-03T01:49:18.553Z,102093.63
2023-02-03T01:51:45.932Z,102088.53
2023-02-03T01:54:23.891Z,102093.03
2023-02-03T01:56:59.180Z,102090.28
2023-02-03T01:59:26.032Z,102104.78
2023-02-03T02:01:54.292Z,102094.84
2023-02-03T02:04:22.187Z,102081.41
2023-02-03T02:06:48.889Z,102058.38
2023-02-03T02:09:16.250Z,102061.78
2023-02-03T02:11:42.729Z,102054.00
2023-02-03T02:14:09.887Z,102057.59
2023-02-03T02:17:02.372Z,102053.19
2023-02-03T02:19:53.665Z,102048.97
2023-02-03T02:22:26.031Z,102038.84
2023-02-03T02:25:10.758Z,102036.88
2023-02-03T02:28:08.166Z,102030.47
2023-02-03T02:31:00.882Z,102036.00
2023-02-03T02:33:36.580Z,102028.44
2023-02-03T02:36:25.228Z,102017.88
2023-02-03T02:39:09.728Z,102016.50
2023-02-03T02:41:42.221Z,102021.88
2023-02-03T02:44:11.650Z,102021.81
2023-02-03T02:46:50.561Z,101997.56
2023-02-03T02:49:25.081Z,101999.56
2023-02-03T02:51:53.633Z,101993.50
2023-02-03T02:54:23.808Z,101975.81
2023-02-03T02:56:55.790Z,101972.41
2023-02-03T02:59:22.493Z,102004.78
2023-02-03T03:01:49.372Z,102026.69
2023-02-03T03:04:22.037Z,102015.78
2023-02-03T03:06:53.564Z,102022.69
2023-02-03T03:09:26.840Z,102044.47
2023-02-03T03:12:01.650Z,102062.47
2023-02-03T03:14:31.970Z,102049.00
2023-02-03T03:17:02.731Z,102033.41
2023-02-03T03:19:34.650Z,102036.16
2023-02-03T03:22:04.641Z,102033.81
2023-02-03T03:24:41.283Z,102029.31
2023-02-03T03:27:20.675Z,102036.78
2023-02-03T03:29:53.484Z,102033.41
2023-02-03T03:32:20.076Z,102024.50
2023-02-03T03:34:47.452Z,102026.84
2023-02-03T03:37:23.417Z,102019.94
2023-02-03T03:40:00.303Z,102024.66
2023-02-03T03:42:26.718Z,102020.84
2023-02-03T03:45:10.023Z,102022.97
2023-02-03T03:47:39.123Z,102020.19
2023-02-03T03:50:09.423Z,102027.88
2023-02-03T03:52:37.331Z,102016.88
2023-02-03T03:55:08.288Z,102034.13
2023-02-03T03:57:47.920Z,102028.13
2023-02-03T04:00:19.177Z,102031.06
2023-02-03T04:02:51.552Z,102031.06
2023-02-03T04:05:18.728Z,102023.56
2023-02-03T04:07:47.063Z,102016.81
2023-02-03T04:10:32.431Z,102011.19
2023-02-03T04:12:59.465Z,102015.22
2023-02-03T04:15:26.063Z,102017.00
2023-02-03T04:17:52.972Z,102009.31
2023-02-03T04:20:19.484Z,102007.47
2023-02-03T04:22:46.001Z,102037.69
2023-02-03T04:25:12.675Z,102021.00
2023-02-03T04:27:39.272Z,102014.41
2023-02-03T04:30:06.661Z,102017.97
2023-02-03T04:32:35.445Z,102013.75
2023-02-03T04:35:03.119Z,102024.81
2023-02-03T04:37:29.734Z,102026.16
2023-02-03T04:39:56.629Z,102019.56
2023-02-03T04:42:24.227Z,102008.94
2023-02-03T04:44:51.405Z,102012.88
2023-02-03T04:47:18.462Z,102001.44
2023-02-03T04:49:45.235Z,101994.38
2023-02-03T04:52:12.322Z,101993.09
2023-02-03T04:54:39.427Z,101971.03
2023-02-03T04:57:06.525Z,101980.03
2023-02-03T04:59:33.283Z,101982.91
2023-02-03T05:02:02.983Z,101984.50
2023-02-03T05:04:29.498Z,101969.50
2023-02-03T05:06:57.467Z,101987.06
2023-02-03T05:09:24.858Z,101987.47
2023-02-03T05:11:51.671Z,101986.38
2023-02-03T05:14:18.281Z,101978.91
2023-02-03T05:16:46.280Z,101973.88
2023-02-03T05:19:12.993Z,101979.63
2023-02-03T05:21:39.508Z,101972.19
2023-02-03T05:24:07.847Z,101979.69
2023-02-03T05:26:35.878Z,101985.03
2023-02-03T05:29:03.103Z,101992.91
2023-02-03T05:31:29.583Z,101974.34
2023-02-03T05:33:56.084Z,101961.06
2023-02-03T05:36:22.594Z,101965.13
2023-02-03T05:38:49.041Z,101966.84
2023-02-03T05:41:33.799Z,101985.41
2023-02-03T05:44:00.318Z,101969.25
2023-02-03T05:46:26.806Z,101983.50
2023-02-03T05:48:53.300Z,101973.44
2023-02-03T05:51:19.792Z,101970.22
2023-02-03T05:53:46.253Z,101967.19
2023-02-03T05:56:12.716Z,101981.19
2023-02-03T05:58:39.182Z,101975.66
2023-02-03T06:01:05.646Z,101968.94
2023-02-03T06:03:32.169Z,101968.34
2023-02-03T06:05:58.983Z,101975.03
2023-02-03T06:08:28.599Z,101990.34
2023-02-03T06:11:04.421Z,101991.06
2023-02-03T06:13:31.181Z,101991.78
2023-02-03T06:15:57.768Z,101983.13
2023-02-03T06:18:24.249Z,101976.00
2023-02-03T06:20:51.314Z,101972.97
2023-02-03T06:23:19.274Z,101977.59
2023-02-03T06:25:48.754Z,101975.38
2023-02-03T06:28:15.614Z,101963.38
2023-02-03T06:30:42.687Z,101972.06
2023-02-03T06:33:09.303Z,101993.06
2023-02-03T06:35:35.806Z,101991.00
2023-02-03T06:38:02.300Z,101971.28
2023-02-03T06:40:29.496Z,101976.19
2023-02-03T06:42:56.237Z,101978.16
2023-02-03T06:45:24.947Z,101992.78
2023-02-03T06:47:51.830Z,101989.22
2023-02-03T06:50:18.996Z,101989.88
2023-02-03T06:52:45.903Z,101989.56
2023-02-03T06:55:12.440Z,101999.50
2023-02-03T06:57:46.856Z,102000.94
2023-02-03T07:00:18.174Z,101994.38
2023-02-03T07:02:45.393Z,101989.88
2023-02-03T07:05:11.930Z,102001.09
2023-02-03T07:07:39.484Z,102009.38
2023-02-03T07:10:07.337Z,102001.63
2023-02-03T07:12:33.990Z,101999.03
2023-02-03T07:15:00.535Z,101998.78
2023-02-03T07:17:27.116Z,102005.28
2023-02-03T07:19:53.587Z,102002.47
2023-02-03T07:22:20.149Z,102004.41
2023-02-03T07:24:46.594Z,101995.56
2023-02-03T07:27:13.051Z,101999.69
2023-02-03T07:29:39.520Z,101995.75
2023-02-03T07:32:06.117Z,102008.22
2023-02-03T07:34:32.678Z,101997.47
2023-02-03T07:36:59.276Z,102002.22
2023-02-03T07:39:25.801Z,101998.94
2023-02-03T07:41:52.336Z,101999.00
2023-02-03T07:44:18.810Z,102006.81
2023-02-03T07:46:45.563Z,102006.81
2023-02-03T07:49:13.011Z,101999.00
2023-02-03T07:51:39.502Z,101987.88
2023-02-03T07:54:06.953Z,101998.38
2023-02-03T07:56:33.736Z,102017.75
2023-02-03T07:59:00.440Z,102010.59
2023-02-03T08:01:27.113Z,102001.91
2023-02-03T08:03:55.148Z,102007.53
2023-02-03T08:06:22.035Z,102007.91
2023-02-03T08:08:48.532Z,102005.84
2023-02-03T08:11:15.000Z,102024.00
2023-02-03T08:13:41.661Z,102027.47
2023-02-03T08:16:08.247Z,102018.97
2023-02-03T08:18:34.865Z,102022.47
2023-02-03T08:21:03.602Z,102018.88
2023-02-03T08:23:30.597Z,102028.50
2023-02-03T08:25:57.079Z,102035.34
2023-02-03T08:28:23.870Z,102022.31
2023-02-03T08:30:50.938Z,102019.31
2023-02-03T08:33:17.460Z,102008.84
2023-02-03T08:35:47.672Z,102015.13
2023-02-03T08:38:14.204Z,102015.25
2023-02-03T08:40:40.679Z,102002.97
2023-02-03T08:43:07.370Z,102004.59
2023-02-03T08:45:33.986Z,102016.03
2023-02-03T08:48:00.506Z,102012.91
2023-02-03T08:50:27.380Z,102006.38
2023-02-03T08:52:54.130Z,102005.50
2023-02-03T08:55:20.588Z,102025.75
2023-02-03T08:57:47.110Z,102023.84
2023-02-03T09:00:14.157Z,102020.97
2023-02-03T09:02:40.631Z,102032.66
2023-02-03T09:05:07.499Z,102019.25
2023-02-03T09:07:34.066Z,102030.81
2023-02-03T09:10:00.496Z,102028.78
2023-02-03T09:12:26.985Z,102032.38
2023-02-03T09:14:56.549Z,102060.25
2023-02-03T09:17:23.070Z,102042.63
2023-02-03T09:19:49.652Z,102037.66
2023-02-03T09:22:16.167Z,102034.00
2023-02-03T09:24:43.240Z,102037.94
2023-02-03T09:27:09.789Z,102034.59
2023-02-03T09:29:36.261Z,102036.22
2023-02-03T09:32:07.736Z,102040.44
2023-02-03T09:34:34.336Z,102040.63
2023-02-03T09:37:00.874Z,102047.25
2023-02-03T09:39:27.371Z,102037.28
2023-02-03T09:41:56.840Z,102046.09
2023-02-03T09:44:37.464Z,102038.91
2023-02-03T09:47:12.833Z,102043.03
2023-02-03T09:49:53.550Z,102039.69
2023-02-03T09:52:23.171Z,102041.44
2023-02-03T09:55:16.739Z,102034.28
2023-02-03T09:57:51.508Z,102033.53
2023-02-03T10:00:26.634Z,102026.13
2023-02-03T10:03:11.652Z,102034.72
2023-02-03T10:05:53.035Z,102043.03
2023-02-03T10:08:55.252Z,102058.47
2023-02-03T10:11:38.044Z,102062.72
2023-02-03T10:14:22.871Z,102058.47
2023-02-03T10:17:04.661Z,102048.69
2023-02-03T10:19:43.884Z,102051.06
2023-02-03T10:22:18.510Z,102055.69
2023-02-03T10:24:48.080Z,102059.72
2023-02-03T10:27:21.742Z,102057.72
2023-02-03T10:29:58.138Z,102065.25
2023-02-03T10:32:26.922Z,102065.31
2023-02-03T10:34:53.852Z,102063.84
2023-02-03T10:37:46.270Z,102075.66
2023-02-03T10:40:16.068Z,102077.38
2023-02-03T10:43:03.208Z,102078.75
2023-02-03T10:45:34.708Z,102061.81
2023-02-03T10:48:01.295Z,102055.81
2023-02-03T10:50:31.934Z,102064.72
2023-02-03T10:53:18.472Z,102061.91
2023-02-03T10:55:48.916Z,102056.34
2023-02-03T10:58:22.817Z,102065.53
2023-02-03T11:00:56.834Z,102059.25
2023-02-03T11:03:28.172Z,102052.53
2023-02-03T11:06:05.265Z,102062.44
2023-02-03T11:08:33.360Z,102061.94
2023-02-03T11:11:06.676Z,102065.44
2023-02-03T11:13:33.566Z,102056.03
2023-02-03T11:16:06.899Z,102058.00
2023-02-03T11:18:57.338Z,102076.72
2023-02-03T11:21:39.043Z,102076.38
2023-02-03T11:24:32.997Z,102074.31
2023-02-03T11:27:16.891Z,102079.63
2023-02-03T11:29:49.268Z,102078.56
2023-02-03T11:32:28.856Z,102082.75
2023-02-03T11:34:59.002Z,102082.41
2023-02-03T11:37:37.167Z,102093.41
2023-02-03T11:40:06.749Z,102073.72
2023-02-03T11:42:38.696Z,102082.53
2023-02-03T11:45:29.750Z,102072.88
2023-02-03T11:48:15.794Z,102082.75
2023-02-03T11:51:02.238Z,102078.16
2023-02-03T11:53:56.229Z,102081.78
2023-02-03T11:56:29.131Z,102073.13
2023-02-03T11:59:21.303Z,102080.03
2023-02-03T12:02:09.701Z,102084.47
2023-02-03T12:04:58.206Z,102075.50
2023-02-03T12:07:54.169Z,102077.84
2023-02-03T12:10:32.771Z,102077.84
2023-02-03T12:13:19.504Z,102091.69
2023-02-03T12:15:52.036Z,102091.41
2023-02-03T12:18:44.646Z,102095.28
2023-02-03T12:21:29.558Z,102094.53
2023-02-03T12:24:39.107Z,102122.13
2023-02-03T12:27:33.782Z,102104.91
2023-02-03T12:30:07.152Z,102111.03
2023-02-03T12:32:46.696Z,102110.44
2023-02-03T12:35:35.036Z,102094.84
2023-02-03T12:38:17.525Z,102072.88
2023-02-03T12:40:44.041Z,102068.66
2023-02-03T12:43:20.892Z,102077.44
2023-02-03T12:46:07.739Z,102095.81
2023-02-03T12:48:47.518Z,102098.59
2023-02-03T12:51:23.197Z,102087.00
2023-02-03T12:53:57.073Z,102085.03
2023-02-03T12:56:30.270Z,102091.50
2023-02-03T12:59:13.959Z,102094.16
2023-02-03T13:01:50.332Z,102079.88
2023-02-03T13:04:44.829Z,102094.69
2023-02-03T13:07:30.199Z,102080.69
2023-02-03T13:10:22.725Z,102084.69
2023-02-03T13:12:56.596Z,102076.03
2023-02-03T13:15:40.707Z,102091.50
2023-02-03T13:18:19.092Z,102075.63
2023-02-03T13:20:45.811Z,102069.63
2023-02-03T13:23:15.798Z,102077.59
2023-02-03T13:26:00.287Z,102064.94
2023-02-03T13:28:53.395Z,102088.63
2023-02-03T13:31:47.461Z,102101.56
2023-02-03T13:34:42.061Z,102102.53
2023-02-03T13:37:11.302Z,102102.03
2023-02-03T13:39:43.799Z,102101.19
2023-02-03T13:42:19.056Z,102118.09
2023-02-03T13:44:47.662Z,102126.25
2023-02-03T13:47:24.728Z,102129.28
2023-02-03T13:49:56.892Z,102122.03
2023-02-03T13:52:36.099Z,102133.16
2023-02-03T13:55:03.520Z,102127.09
2023-02-03T13:57:35.164Z,102135.34
2023-02-03T14:00:04.764Z,102131.47
2023-02-03T14:02:42.941Z,102138.69
2023-02-03T14:05:43.209Z,102122.00
2023-02-03T14:08:27.934Z,102136.78
2023-02-03T14:11:38.422Z,102130.03
2023-02-03T14:14:07.739Z,102136.69
2023-02-03T14:16:39.313Z,102150.53
2023-02-03T14:19:09.729Z,102141.81
2023-02-03T14:21:54.190Z,102156.78
2023-02-03T14:24:22.193Z,102150.84
2023-02-03T14:26:54.298Z,102174.72
2023-02-03T14:29:38.981Z,102187.16
2023-02-03T14:32:10.477Z,102183.31
2023-02-03T14:34:39.604Z,102189.22
2023-02-03T14:37:23.152Z,102186.16
2023-02-03T14:40:02.068Z,102196.44
2023-02-03T14:43:08.571Z,102206.75
2023-02-03T14:45:54.952Z,102203.47
2023-02-03T14:48:30.750Z,102198.75
2023-02-03T14:51:12.405Z,102199.47
2023-02-03T14:54:08.732Z,102205.16
2023-02-03T14:57:16.616Z,102209.47
2023-02-03T14:59:47.744Z,102209.00
2023-02-03T15:02:17.267Z,102215.34
2023-02-03T15:04:45.733Z,102208.66
2023-02-03T15:07:37.340Z,102205.56
2023-02-03T15:10:11.915Z,102208.94
2023-02-03T15:12:38.457Z,102230.00
2023-02-03T15:15:28.671Z,102227.59
2023-02-03T15:17:59.513Z,102230.56
2023-02-03T15:20:46.248Z,102230.34
2023-02-03T15:23:27.748Z,102219.84
2023-02-03T15:26:12.918Z,102219.91
2023-02-03T15:28:39.874Z,102228.50
2023-02-03T15:31:21.371Z,102234.09
2023-02-03T15:33:50.109Z,102245.00
2023-02-03T15:36:24.710Z,102229.56
2023-02-03T15:39:33.941Z,102237.38
2023-02-03T15:42:02.487Z,102238.91
2023-02-03T15:44:55.094Z,102246.84
2023-02-03T15:47:32.375Z,102246.97
2023-02-03T15:50:16.262Z,102236.16
2023-02-03T15:52:45.635Z,102242.91
2023-02-03T15:55:29.011Z,102246.06
2023-02-03T15:57:55.732Z,102257.31
2023-02-03T16:00:36.375Z,102273.81
2023-02-03T16:03:06.635Z,102268.75
2023-02-03T16:05:37.017Z,102258.91
2023-02-03T16:08:36.520Z,102259.63
2023-02-03T16:11:21.662Z,102273.81
2023-02-03T16:13:48.161Z,102280.69
2023-02-03T16:16:22.551Z,102266.16
2023-02-03T16:18:55.955Z,102289.19
2023-02-03T16:21:27.669Z,102295.25
2023-02-03T16:23:54.169Z,102306.03
2023-02-03T16:26:23.567Z,102295.59
2023-02-03T16:29:35.102Z,102306.75
2023-02-03T16:32:20.482Z,102294.19
2023-02-03T16:35:05.838Z,102300.44
2023-02-03T16:37:53.671Z,102317.19
2023-02-03T16:40:41.024Z,102325.41
2023-02-03T16:43:35.178Z,102320.41
2023-02-03T16:46:20.658Z,102332.09
2023-02-03T16:49:06.275Z,102323.63
2023-02-03T16:51:40.044Z,102338.69
2023-02-03T16:54:11.008Z,102330.31
2023-02-03T16:56:37.619Z,102336.09
2023-02-03T16:59:04.125Z,102341.13
2023-02-03T17:01:30.653Z,102336.66
2023-02-03T17:03:57.195Z,102333.34
2023-02-03T17:06:23.715Z,102338.16
2023-02-03T17:08:50.759Z,102351.59
2023-02-03T17:11:23.255Z,102351.66
2023-02-03T17:13:50.656Z,102355.66
2023-02-03T17:16:22.996Z,102358.06
2023-02-03T17:18:49.801Z,102349.75
2023-02-03T17:21:34.458Z,102357.06
2023-02-03T17:24:01.039Z,102364.75
2023-02-03T17:26:27.664Z,102363.59
2023-02-03T17:28:54.193Z,102364.03
2023-02-03T17:31:21.136Z,102376.03
2023-02-03T17:33:51.598Z,102373.94
2023-02-03T17:36:19.959Z,102383.47
2023-02-03T17:55:23.345Z,102405.88
2023-02-03T17:57:49.796Z,102403.00
2023-02-03T18:00:16.517Z,102417.72
2023-02-03T18:02:43.413Z,102407.41
2023-02-03T18:05:10.538Z,102420.06
2023-02-03T18:07:36.978Z,102420.75
2023-02-03T18:10:03.981Z,102433.06
2023-02-03T18:12:30.526Z,102435.72
2023-02-03T18:14:57.774Z,102420.53
2023-02-03T18:17:24.414Z,102429.38
2023-02-03T18:19:55.694Z,102440.44
2023-02-03T18:22:23.047Z,102446.47
2023-02-03T18:24:52.614Z,102447.94
2023-02-03T18:27:19.501Z,102442.66
2023-02-03T18:29:47.343Z,102438.28
2023-02-03T18:32:15.060Z,102456.50
2023-02-03T18:34:42.004Z,102455.38
2023-02-03T18:37:08.734Z,102454.41
2023-02-03T18:39:35.493Z,102449.59
2023-02-03T18:42:02.028Z,102447.28
2023-02-03T18:44:28.573Z,102452.34
2023-02-03T18:46:55.206Z,102449.03
2023-02-03T18:49:21.835Z,102444.22
2023-02-03T18:51:48.333Z,102453.81
2023-02-03T18:54:14.799Z,102460.34
2023-02-03T18:56:41.294Z,102460.72
2023-02-03T18:59:14.037Z,102468.56
2023-02-03T19:01:40.746Z,102467.63
2023-02-03T19:04:07.455Z,102462.22
2023-02-03T19:06:35.799Z,102457.50
2023-02-03T19:09:03.535Z,102456.00
2023-02-03T19:11:30.179Z,102473.63
2023-02-03T19:13:56.676Z,102470.88
2023-02-03T19:16:23.136Z,102493.44
2023-02-03T19:18:49.656Z,102491.38
2023-02-03T19:21:17.362Z,102490.44
2023-02-03T19:23:43.901Z,102497.00
2023-02-03T19:26:12.149Z,102491.81
2023-02-03T19:28:39.642Z,102493.00
2023-02-03T19:31:08.976Z,102505.44
2023-02-03T19:33:36.651Z,102514.97
2023-02-03T19:36:04.581Z,102522.91
2023-02-03T19:38:31.184Z,102523.97
2023-02-03T19:40:57.736Z,102533.75
2023-02-03T19:43:27.235Z,102533.19
2023-02-03T19:45:53.777Z,102528.47
2023-02-03T19:48:20.251Z,102541.59
2023-02-03T19:50:48.254Z,102540.66
2023-02-03T19:53:17.253Z,102543.66
2023-02-03T19:55:44.590Z,102546.44
2023-02-03T19:58:12.430Z,102541.38
2023-02-03T20:00:39.236Z,102544.34
2023-02-03T20:03:05.826Z,102542.28
2023-02-03T20:05:32.387Z,102533.91
2023-02-03T20:07:58.830Z,102543.56
2023-02-03T20:10:28.864Z,102545.50
2023-02-03T20:12:55.675Z,102543.22
2023-02-03T20:15:22.230Z,102544.72
2023-02-03T20:17:48.788Z,102553.91
2023-02-03T20:20:18.163Z,102560.25
2023-02-03T20:22:46.235Z,102558.06
2023-02-03T20:25:12.762Z,102547.81
2023-02-03T20:27:39.328Z,102548.72
2023-02-03T20:30:06.377Z,102559.66
2023-02-03T20:32:32.858Z,102546.88
2023-02-03T20:34:59.974Z,102564.84
2023-02-03T20:37:26.491Z,102556.75
2023-02-03T20:39:53.017Z,102568.97
2023-02-03T20:42:19.670Z,102579.22
2023-02-03T20:44:46.277Z,102574.16
2023-02-03T20:47:15.210Z,102598.44
2023-02-03T20:49:42.732Z,102603.50
2023-02-03T20:52:18.146Z,102596.59
2023-02-03T20:54:44.824Z,102600.28
2023-02-03T20:57:20.636Z,102594.41
2023-02-03T20:59:47.126Z,102609.47
2023-02-03T21:02:22.646Z,102609.13
2023-02-03T21:04:57.877Z,102605.59
2023-02-03T21:07:27.012Z,102616.97
2023-02-03T21:09:54.408Z,102609.13
2023-02-03T21:12:21.155Z,102609.13
2023-02-03T21:14:49.004Z,102616.63
2023-02-03T21:17:27.169Z,102616.97
2023-02-03T21:19:55.013Z,102619.41
2023-02-03T21:22:26.854Z,102614.31
2023-02-03T21:24:56.520Z,102613.06
2023-02-03T21:27:27.416Z,102606.38
2023-02-03T21:29:57.128Z,102605.44
2023-02-03T21:32:26.176Z,102621.53
2023-02-03T21:34:52.883Z,102612.59
2023-02-03T21:37:41.368Z,102617.53
2023-02-03T21:40:25.845Z,102619.59
2023-02-03T21:42:53.400Z,102634.56
2023-02-03T21:45:19.828Z,102635.72
2023-02-03T21:47:48.916Z,102638.00
2023-02-03T21:50:35.886Z,102639.94
2023-02-03T21:53:05.453Z,102638.50
2023-02-03T21:55:31.900Z,102650.66
2023-02-03T21:57:58.505Z,102654.91
2023-02-03T22:00:43.181Z,102662.72
2023-02-03T22:03:20.256Z,102652.97
2023-02-03T22:05:47.444Z,102635.81
2023-02-03T22:08:18.527Z,102629.47
2023-02-03T22:10:45.189Z,102629.00
2023-02-03T22:13:13.080Z,102647.06
2023-02-03T22:15:40.619Z,102643.97
2023-02-03T22:18:07.370Z,102651.09
2023-02-03T22:20:34.001Z,102651.91
2023-02-03T22:23:00.568Z,102659.72
2023-02-03T22:25:27.167Z,102668.13
2023-02-03T22:27:53.670Z,102670.91
2023-02-03T22:30:20.225Z,102683.88
2023-02-03T22:32:46.708Z,102683.28
2023-02-03T22:35:13.196Z,102685.72
2023-02-03T22:37:39.660Z,102691.13
2023-02-03T22:40:06.482Z,102698.94
2023-02-03T22:42:32.961Z,102694.56
2023-02-03T22:44:59.456Z,102697.31
2023-02-03T22:47:26.348Z,102696.09
2023-02-03T22:49:52.877Z,102693.22
2023-02-03T22:52:19.385Z,102708.91
2023-02-03T22:54:45.925Z,102720.75
2023-02-03T22:57:12.377Z,102715.91
2023-02-03T22:59:38.880Z,102723.84
2023-02-03T23:02:05.329Z,102703.94
2023-02-03T23:04:31.977Z,102724.03
2023-02-03T23:06:58.503Z,102722.91
2023-02-03T23:09:25.014Z,102725.34
2023-02-03T23:11:51.568Z,102720.16
2023-02-03T23:14:18.102Z,102710.94
2023-02-03T23:16:44.622Z,102718.84
2023-02-03T23:19:11.105Z,102706.53
2023-02-03T23:21:37.690Z,102725.88
2023-02-03T23:24:04.444Z,102724.59
2023-02-03T23:26:30.943Z,102726.53
2023-02-03T23:28:57.390Z,102736.91
2023-02-03T23:31:23.933Z,102731.59
2023-02-03T23:34:09.067Z,102730.31
2023-02-03T23:36:35.560Z,102726.00
2023-02-03T23:39:02.106Z,102747.88
2023-02-03T23:41:28.606Z,102741.75
2023-02-03T23:43:55.112Z,102748.72
2023-02-03T23:46:21.595Z,102743.09
2023-02-03T23:48:48.203Z,102747.00
2023-02-03T23:51:14.945Z,102746.53
2023-02-03T23:53:41.401Z,102742.81
2023-02-03T23:56:07.881Z,102744.16
2023-02-03T23:58:34.348Z,102754.69
